Terminal Aerodrome Forecast
Issued by NWS

Home | Current Version | Previous Version | Graphics & Text | Print | Product List | Glossary On
Versions: 1 2 3 4 5 6 7 8 9 10 11 12 13 14 15 16 17 18 19
213
FTUS43 KGRB 041733
TAFATW
TAF
KATW 041733Z 0418/0518 22006KT P6SM FEW120
     FM042000 21005KT P6SM -SN BKN040
     FM050000 22004KT 3SM -SN SCT015 OVC020
     FM050500 26005KT P6SM SCT025 BKN040
     FM050900 28005KT P6SM SKC=

USA.gov is the U.S. government's official web portal to all federal, state and local government web resources and services.